Time;durP1;ratioP1;P1;durP2;ratioP2;P2;SDS_P1;SDS_P2;PMS_P1;PMS_P2;Temp;Humidity;BMP_temperature;BMP_pressure;BME280_temperature;BME280_humidity;BME280_pressure;Samples;Min_cycle;Max_cycle;Signal;HPM_P1;HPM_P2
2022/11/05 00:10:07;;;;;;;33.58;5.40;;;;;;;;;;5059385;28;20086;-77
2022/11/05 00:18:03;;;;;;;24.10;4.53;;;;;;;;;;5060073;28;20031;-78
2022/11/05 00:20:29;;;;;;;26.25;4.85;;;;;;;;;;5060595;28;20025;-76
2022/11/05 00:25:54;;;;;;;23.23;4.32;;;;;;;;;;5057254;28;20167;-77
2022/11/05 00:28:20;;;;;;;22.52;4.35;;;;;;;;;;5039581;28;20025;-77
2022/11/05 00:30:46;;;;;;;16.75;4.10;;;;;;;;;;5058002;28;20029;-77
2022/11/05 00:33:12;;;;;;;20.02;4.20;;;;;;;;;;5058128;28;20028;-78
2022/11/05 00:35:38;;;;;;;24.45;4.88;;;;;;;;;;5059067;28;20055;-77
2022/11/05 00:38:04;;;;;;;28.50;4.30;;;;;;;;;;5062385;28;20028;-77
2022/11/05 00:40:30;;;;;;;27.55;4.97;;;;;;;;;;5062880;28;20124;-77
2022/11/05 00:45:41;;;;;;;23.80;4.43;;;;;;;;;;5059009;28;20120;-77
2022/11/05 00:50:51;;;;;;;25.02;4.47;;;;;;;;;;5057453;28;20032;-77
2022/11/05 00:53:17;;;;;;;28.58;4.50;;;;;;;;;;5057978;28;20025;-76
2022/11/05 00:55:44;;;;;;;30.90;4.32;;;;;;;;;;5059002;28;20382;-76
2022/11/05 00:58:18;;;;;;;25.85;4.68;;;;;;;;;;5056211;28;20029;-77
2022/11/05 01:00:47;;;;;;;22.55;4.65;;;;;;;;;;5057450;28;20470;-76
2022/11/05 01:03:14;;;;;;;25.95;4.72;;;;;;;;;;5057058;28;20021;-77
2022/11/05 01:05:41;;;;;;;29.27;4.47;;;;;;;;;;5056547;28;20108;-77
2022/11/05 01:08:08;;;;;;;22.80;4.53;;;;;;;;;;5057463;28;20029;-78
2022/11/05 01:10:34;;;;;;;14.15;4.18;;;;;;;;;;5040942;28;20021;-75
2022/11/05 01:13:00;;;;;;;30.35;4.55;;;;;;;;;;5056916;28;20025;-77
2022/11/05 01:15:26;;;;;;;26.23;4.40;;;;;;;;;;5056205;28;20117;-77
2022/11/05 01:17:52;;;;;;;22.02;4.28;;;;;;;;;;5056745;28;20021;-76
2022/11/05 01:20:18;;;;;;;20.23;4.38;;;;;;;;;;5040058;28;20025;-76
2022/11/05 01:22:44;;;;;;;17.95;4.18;;;;;;;;;;5057510;28;20083;-77
2022/11/05 01:25:10;;;;;;;26.80;5.13;;;;;;;;;;5091945;22;20048;-75
2022/11/05 01:27:37;;;;;;;19.45;4.75;;;;;;;;;;5075203;28;20028;-74
2022/11/05 01:30:04;;;;;;;18.48;4.15;;;;;;;;;;5075175;28;20076;-74
2022/11/05 01:32:30;;;;;;;19.23;5.00;;;;;;;;;;5075415;28;20492;-74
2022/11/05 01:34:56;;;;;;;24.63;5.15;;;;;;;;;;5075373;28;20038;-75
2022/11/05 01:37:22;;;;;;;20.58;4.60;;;;;;;;;;5078817;28;20099;-73
2022/11/05 01:39:48;;;;;;;30.10;4.88;;;;;;;;;;5085471;28;20091;-73
2022/11/05 01:42:24;;;;;;;26.92;5.55;;;;;;;;;;5084256;28;20035;-73
2022/11/05 01:44:56;;;;;;;29.20;4.97;;;;;;;;;;5091155;28;20008;-72
2022/11/05 01:47:22;;;;;;;28.40;4.70;;;;;;;;;;5095588;28;20036;-72
2022/11/05 01:49:49;;;;;;;25.23;4.72;;;;;;;;;;5096527;28;20027;-71
2022/11/05 01:52:15;;;;;;;29.42;5.85;;;;;;;;;;5097892;28;20013;-72
2022/11/05 01:54:41;;;;;;;23.75;4.80;;;;;;;;;;5097074;28;20051;-74
2022/11/05 01:57:08;;;;;;;29.13;5.03;;;;;;;;;;5076923;28;20024;-73
2022/11/05 01:59:37;;;;;;;23.73;4.70;;;;;;;;;;5082267;28;20024;-74
2022/11/05 02:02:03;;;;;;;23.55;4.72;;;;;;;;;;5080417;28;20033;-74
2022/11/05 02:04:37;;;;;;;29.55;5.43;;;;;;;;;;5074491;28;20037;-74
2022/11/05 02:07:03;;;;;;;29.15;5.15;;;;;;;;;;5073503;28;20043;-74
2022/11/05 02:09:32;;;;;;;20.63;4.45;;;;;;;;;;5073914;28;20036;-74
2022/11/05 02:11:58;;;;;;;23.00;4.45;;;;;;;;;;5074159;28;20020;-74
2022/11/05 02:14:24;;;;;;;27.35;5.18;;;;;;;;;;5074430;28;20033;-74
2022/11/05 02:16:53;;;;;;;17.48;4.20;;;;;;;;;;5073848;28;20027;-73
2022/11/05 02:19:22;;;;;;;24.15;5.05;;;;;;;;;;5073744;28;20068;-74
2022/11/05 02:21:51;;;;;;;19.35;4.30;;;;;;;;;;5073060;28;20094;-75
2022/11/05 02:24:30;;;;;;;20.88;4.57;;;;;;;;;;5073759;28;20032;-75
2022/11/05 02:27:18;;;;;;;17.23;4.30;;;;;;;;;;5073636;28;20103;-74
2022/11/05 02:30:03;;;;;;;30.52;4.72;;;;;;;;;;5073652;28;20442;-75
2022/11/05 02:32:35;;;;;;;21.38;4.65;;;;;;;;;;5073962;28;20659;-72
2022/11/05 02:35:13;;;;;;;26.08;5.40;;;;;;;;;;5075725;28;20024;-75
2022/11/05 02:37:53;;;;;;;37.17;5.57;;;;;;;;;;5073214;28;20424;-73
2022/11/05 02:40:21;;;;;;;31.17;4.55;;;;;;;;;;5073825;28;20019;-75
2022/11/05 02:42:57;;;;;;;23.42;4.68;;;;;;;;;;5072271;28;20021;-75
2022/11/05 02:45:33;;;;;;;24.08;4.40;;;;;;;;;;5073320;28;20028;-72
2022/11/05 02:48:18;;;;;;;19.95;4.32;;;;;;;;;;5073648;28;20056;-74
2022/11/05 02:50:44;;;;;;;22.10;4.32;;;;;;;;;;5073797;28;20029;-74
2022/11/05 02:53:14;;;;;;;23.15;4.38;;;;;;;;;;5075876;28;20031;-74
2022/11/05 02:55:44;;;;;;;22.58;4.50;;;;;;;;;;5081100;28;20052;-74
2022/11/05 02:58:10;;;;;;;24.23;4.50;;;;;;;;;;5090515;28;20032;-73
2022/11/05 03:00:42;;;;;;;31.88;4.70;;;;;;;;;;5096521;28;20024;-71
2022/11/05 03:03:13;;;;;;;20.92;4.40;;;;;;;;;;5097873;28;20019;-71
2022/11/05 03:05:44;;;;;;;21.17;4.78;;;;;;;;;;5097603;28;20016;-72
2022/11/05 03:08:15;;;;;;;18.77;4.22;;;;;;;;;;5097646;28;20066;-71
2022/11/05 03:10:54;;;;;;;26.50;4.45;;;;;;;;;;5098002;28;20066;-71
2022/11/05 03:13:22;;;;;;;25.75;4.70;;;;;;;;;;5097887;28;20021;-72
2022/11/05 03:15:48;;;;;;;22.48;4.72;;;;;;;;;;5097547;28;20024;-73
2022/11/05 03:18:20;;;;;;;28.38;4.65;;;;;;;;;;5092219;28;20029;-72
2022/11/05 03:20:50;;;;;;;19.52;4.20;;;;;;;;;;5092244;28;20084;-74
2022/11/05 03:23:35;;;;;;;21.23;4.10;;;;;;;;;;5094638;28;20017;-72
2022/11/05 03:26:06;;;;;;;27.67;5.30;;;;;;;;;;5089743;28;20059;-73
2022/11/05 03:28:33;;;;;;;26.73;4.65;;;;;;;;;;5090389;28;20080;-74
2022/11/05 03:31:01;;;;;;;19.38;4.05;;;;;;;;;;5085919;28;20115;-73
2022/11/05 03:33:28;;;;;;;22.60;4.50;;;;;;;;;;5096303;28;20036;-72
2022/11/05 03:35:54;;;;;;;17.30;4.25;;;;;;;;;;5078659;28;20029;-74
2022/11/05 03:38:22;;;;;;;21.80;5.20;;;;;;;;;;5072621;28;20029;-74
2022/11/05 03:40:51;;;;;;;24.70;4.85;;;;;;;;;;5072681;28;20025;-73
2022/11/05 03:43:17;;;;;;;36.00;5.57;;;;;;;;;;5072885;28;20075;-75
2022/11/05 03:45:46;;;;;;;27.42;5.35;;;;;;;;;;5072050;28;20488;-74
2022/11/05 03:48:14;;;;;;;28.38;5.03;;;;;;;;;;5072519;28;20033;-75
2022/11/05 03:50:42;;;;;;;22.65;4.72;;;;;;;;;;5072440;28;20035;-74
2022/11/05 03:53:20;;;;;;;23.25;5.18;;;;;;;;;;5072910;28;20025;-75
2022/11/05 03:55:51;;;;;;;23.60;5.50;;;;;;;;;;5071582;28;20244;-73
2022/11/05 03:58:19;;;;;;;28.05;5.57;;;;;;;;;;5072742;28;20481;-74
2022/11/05 04:00:45;;;;;;;31.33;5.13;;;;;;;;;;5072458;28;20036;-74
2022/11/05 04:03:11;;;;;;;30.35;5.43;;;;;;;;;;5076682;28;20447;-73
2022/11/05 04:05:37;;;;;;;25.95;4.55;;;;;;;;;;5075927;28;20067;-74
2022/11/05 04:13:32;;;;;;;22.30;5.28;;;;;;;;;;5082003;28;20116;-74
2022/11/05 04:18:43;;;;;;;20.48;4.80;;;;;;;;;;5072561;28;20095;-73
2022/11/05 04:24:07;;;;;;;22.27;4.97;;;;;;;;;;5072568;28;20078;-73
2022/11/05 04:26:33;;;;;;;17.88;4.25;;;;;;;;;;5071850;28;20031;-75
2022/11/05 04:31:43;;;;;;;17.75;4.47;;;;;;;;;;5072193;28;20468;-73
2022/11/05 04:34:09;;;;;;;30.67;4.60;;;;;;;;;;5072040;28;20021;-74
2022/11/05 04:36:35;;;;;;;22.23;4.18;;;;;;;;;;5072135;28;20074;-75
2022/11/05 04:39:01;;;;;;;22.80;4.53;;;;;;;;;;5071945;28;20056;-74
2022/11/05 04:41:27;;;;;;;25.05;5.65;;;;;;;;;;5072073;28;20086;-74
2022/11/05 04:43:53;;;;;;;23.60;5.70;;;;;;;;;;5073335;28;20028;-74
2022/11/05 04:46:19;;;;;;;22.65;4.88;;;;;;;;;;5075994;28;20028;-74
2022/11/05 04:48:45;;;;;;;28.45;5.25;;;;;;;;;;5081609;28;20036;-73
2022/11/05 04:51:11;;;;;;;30.88;6.40;;;;;;;;;;5085350;28;20025;-74
2022/11/05 04:53:37;;;;;;;24.48;5.75;;;;;;;;;;5080178;28;20021;-73
2022/11/05 04:56:10;;;;;;;17.25;4.97;;;;;;;;;;5084046;28;20025;-73
2022/11/05 04:58:39;;;;;;;27.85;5.40;;;;;;;;;;5075946;28;20066;-75
2022/11/05 05:01:06;;;;;;;21.70;4.85;;;;;;;;;;5075965;28;20485;-76
2022/11/05 05:03:32;;;;;;;27.35;5.70;;;;;;;;;;5078888;28;20052;-75
2022/11/05 05:05:58;;;;;;;26.65;5.60;;;;;;;;;;5082449;28;20024;-75
2022/11/05 05:08:24;;;;;;;17.30;4.97;;;;;;;;;;5080501;28;20066;-72
2022/11/05 05:10:50;;;;;;;26.88;5.32;;;;;;;;;;5074187;28;20032;-74
2022/11/05 05:13:16;;;;;;;17.30;5.07;;;;;;;;;;5075512;28;20020;-75
2022/11/05 05:15:42;;;;;;;19.90;6.70;;;;;;;;;;5077659;28;20017;-74
2022/11/05 05:18:08;;;;;;;20.38;5.97;;;;;;;;;;5075870;28;20028;-76
2022/11/05 05:23:19;;;;;;;21.08;5.55;;;;;;;;;;5075941;28;20035;-74
2022/11/05 05:25:45;;;;;;;23.50;5.72;;;;;;;;;;5075152;28;20036;-76
2022/11/05 05:28:10;;;;;;;17.33;5.60;;;;;;;;;;5074833;28;20335;-74
2022/11/05 05:30:36;;;;;;;25.75;6.75;;;;;;;;;;5082925;28;20031;-75
2022/11/05 05:33:03;;;;;;;16.05;5.53;;;;;;;;;;5076541;28;20108;-73
2022/11/05 05:35:29;;;;;;;26.23;5.82;;;;;;;;;;5077323;28;20528;-74
2022/11/05 05:37:55;;;;;;;19.73;5.25;;;;;;;;;;5077421;28;20425;-73
2022/11/05 05:40:22;;;;;;;15.35;5.05;;;;;;;;;;5095031;28;20067;-74
2022/11/05 05:42:47;;;;;;;21.08;5.35;;;;;;;;;;5094573;28;20084;-75
2022/11/05 05:45:13;;;;;;;14.63;4.85;;;;;;;;;;5075116;28;20064;-73
2022/11/05 05:47:39;;;;;;;24.65;5.53;;;;;;;;;;5075720;28;20085;-73
2022/11/05 05:50:05;;;;;;;17.60;5.97;;;;;;;;;;5075526;28;20035;-72
2022/11/05 05:52:31;;;;;;;15.30;4.85;;;;;;;;;;5075186;28;20028;-72
2022/11/05 05:54:57;;;;;;;18.95;5.70;;;;;;;;;;5073758;28;20021;-72
2022/11/05 05:57:23;;;;;;;22.08;5.72;;;;;;;;;;5074125;28;20016;-73
2022/11/05 05:59:49;;;;;;;17.83;5.07;;;;;;;;;;5074485;28;20349;-74
2022/11/05 06:02:15;;;;;;;17.90;5.70;;;;;;;;;;5074186;28;20028;-73
2022/11/05 06:04:41;;;;;;;22.00;5.45;;;;;;;;;;5073159;28;20028;-73
2022/11/05 06:07:07;;;;;;;17.02;5.65;;;;;;;;;;5074288;28;20020;-73
2022/11/05 06:09:33;;;;;;;18.38;5.72;;;;;;;;;;5075534;28;20027;-73
2022/11/05 06:11:59;;;;;;;18.77;5.60;;;;;;;;;;5080105;28;20028;-75
2022/11/05 06:14:25;;;;;;;24.63;5.72;;;;;;;;;;5079648;28;20059;-73
2022/11/05 06:16:51;;;;;;;18.45;5.32;;;;;;;;;;5097338;28;20032;-72
2022/11/05 06:19:17;;;;;;;20.45;5.57;;;;;;;;;;5092395;28;20043;-73
2022/11/05 06:21:43;;;;;;;24.20;5.68;;;;;;;;;;5081114;28;20499;-73
2022/11/05 06:24:10;;;;;;;22.15;5.20;;;;;;;;;;5082612;28;20060;-73
2022/11/05 06:26:41;;;;;;;19.08;5.38;;;;;;;;;;5087279;28;20020;-72
2022/11/05 06:29:07;;;;;;;25.35;5.50;;;;;;;;;;5086535;28;20020;-74
2022/11/05 06:31:33;;;;;;;21.83;6.00;;;;;;;;;;5074861;28;20065;-75
2022/11/05 06:33:59;;;;;;;16.85;4.70;;;;;;;;;;5074381;28;20025;-72
2022/11/05 06:36:25;;;;;;;20.15;5.18;;;;;;;;;;5073436;28;20024;-73
2022/11/05 06:38:51;;;;;;;25.70;5.65;;;;;;;;;;5072825;28;20029;-73
2022/11/05 06:41:17;;;;;;;18.27;5.57;;;;;;;;;;5074194;28;20032;-72
2022/11/05 06:43:43;;;;;;;19.50;5.68;;;;;;;;;;5074269;28;20436;-73
2022/11/05 06:46:09;;;;;;;15.45;5.28;;;;;;;;;;5081575;28;20052;-75
2022/11/05 06:48:35;;;;;;;23.38;5.82;;;;;;;;;;5075946;28;20062;-74
2022/11/05 06:51:02;;;;;;;16.25;4.90;;;;;;;;;;5073574;28;20024;-74
2022/11/05 06:53:30;;;;;;;23.75;6.32;;;;;;;;;;5074458;28;20029;-75
2022/11/05 06:55:56;;;;;;;23.13;5.13;;;;;;;;;;5073606;28;20035;-73
2022/11/05 06:58:22;;;;;;;22.15;4.78;;;;;;;;;;5073726;28;20024;-74
2022/11/05 07:00:48;;;;;;;16.50;4.30;;;;;;;;;;5073500;28;20029;-74
2022/11/05 07:03:14;;;;;;;23.55;4.82;;;;;;;;;;5073098;28;20476;-73
2022/11/05 07:05:42;;;;;;;15.52;4.07;;;;;;;;;;5071989;28;20125;-74
2022/11/05 07:08:08;;;;;;;17.58;4.28;;;;;;;;;;5073299;28;20020;-75
2022/11/05 07:10:34;;;;;;;23.50;4.75;;;;;;;;;;5073601;28;20588;-74
2022/11/05 07:13:00;;;;;;;13.02;4.35;;;;;;;;;;5073957;28;20029;-74
2022/11/05 07:15:26;;;;;;;22.17;4.97;;;;;;;;;;5075166;28;20118;-75
2022/11/05 07:17:56;;;;;;;17.45;4.30;;;;;;;;;;5073423;28;20108;-74
2022/11/05 07:20:22;;;;;;;18.25;4.28;;;;;;;;;;5074159;28;20020;-74
2022/11/05 07:22:48;;;;;;;26.08;4.63;;;;;;;;;;5076223;28;20027;-74
2022/11/05 07:25:14;;;;;;;18.80;4.15;;;;;;;;;;5081008;28;20024;-72
2022/11/05 07:27:40;;;;;;;18.75;4.18;;;;;;;;;;5090507;28;20033;-72
2022/11/05 07:30:07;;;;;;;20.15;4.75;;;;;;;;;;5091640;28;20024;-73
2022/11/05 07:32:37;;;;;;;14.48;4.57;;;;;;;;;;5089364;28;20409;-73
2022/11/05 07:35:03;;;;;;;23.38;5.82;;;;;;;;;;5091622;28;20025;-74
2022/11/05 07:37:29;;;;;;;27.17;4.22;;;;;;;;;;5074833;28;20028;-73
2022/11/05 07:39:55;;;;;;;17.50;5.30;;;;;;;;;;5074162;28;20039;-72
2022/11/05 07:42:21;;;;;;;14.45;4.72;;;;;;;;;;5073404;28;20040;-72
2022/11/05 07:44:47;;;;;;;18.30;4.75;;;;;;;;;;5074191;28;20147;-73
2022/11/05 07:47:13;;;;;;;20.38;4.75;;;;;;;;;;5074037;28;20390;-72
2022/11/05 07:49:39;;;;;;;20.85;3.63;;;;;;;;;;5074609;28;20405;-71
2022/11/05 07:52:05;;;;;;;13.45;3.35;;;;;;;;;;5073231;28;20382;-73
2022/11/05 07:54:31;;;;;;;12.70;3.40;;;;;;;;;;5074435;28;20027;-73
2022/11/05 07:56:57;;;;;;;10.90;3.30;;;;;;;;;;5078154;28;20020;-74
2022/11/05 07:59:23;;;;;;;15.77;3.47;;;;;;;;;;5077859;28;20025;-72
2022/11/05 08:01:49;;;;;;;14.90;3.05;;;;;;;;;;5073134;28;20027;-73
2022/11/05 08:04:15;;;;;;;15.27;3.83;;;;;;;;;;5074080;28;20025;-73
2022/11/05 08:06:41;;;;;;;16.30;3.90;;;;;;;;;;5085571;28;20025;-73
2022/11/05 08:09:07;;;;;;;19.00;3.63;;;;;;;;;;5090283;28;20146;-72
2022/11/05 08:11:34;;;;;;;14.85;2.97;;;;;;;;;;5086415;28;20052;-72
2022/11/05 08:14:00;;;;;;;15.20;3.13;;;;;;;;;;5078360;28;20105;-73
2022/11/05 08:16:26;;;;;;;12.45;3.15;;;;;;;;;;5074060;28;20075;-73
2022/11/05 08:18:52;;;;;;;11.05;2.90;;;;;;;;;;5074956;28;20493;-71
2022/11/05 08:21:18;;;;;;;16.40;3.40;;;;;;;;;;5077242;28;20063;-73
2022/11/05 08:23:44;;;;;;;16.13;3.78;;;;;;;;;;5077476;28;20028;-73
2022/11/05 08:26:10;;;;;;;14.90;3.67;;;;;;;;;;5076818;28;20036;-72
2022/11/05 08:28:36;;;;;;;12.73;2.95;;;;;;;;;;5076437;28;20028;-74
2022/11/05 08:31:02;;;;;;;14.40;3.13;;;;;;;;;;5075242;28;20027;-72
2022/11/05 08:33:30;;;;;;;9.07;2.63;;;;;;;;;;5076643;28;20496;-73
2022/11/05 08:35:56;;;;;;;8.90;2.60;;;;;;;;;;5078679;28;20388;-71
2022/11/05 08:38:22;;;;;;;10.52;2.78;;;;;;;;;;5093879;28;20013;-71
2022/11/05 08:40:55;;;;;;;13.10;3.38;;;;;;;;;;5095134;28;20032;-72
2022/11/05 08:43:21;;;;;;;12.57;2.85;;;;;;;;;;5094281;28;20466;-71
2022/11/05 08:45:47;;;;;;;15.75;3.33;;;;;;;;;;5086616;28;20473;-71
2022/11/05 08:48:14;;;;;;;9.20;2.92;;;;;;;;;;5096595;28;20051;-71
2022/11/05 08:50:41;;;;;;;9.02;3.00;;;;;;;;;;5095647;28;20012;-74
2022/11/05 08:53:07;;;;;;;12.35;2.92;;;;;;;;;;5076144;28;20020;-72
2022/11/05 08:55:33;;;;;;;14.23;2.80;;;;;;;;;;5075848;28;20485;-72
2022/11/05 08:58:03;;;;;;;13.98;3.53;;;;;;;;;;5075740;28;20033;-72
2022/11/05 09:00:31;;;;;;;13.90;4.40;;;;;;;;;;5075731;28;20025;-73
2022/11/05 09:03:01;;;;;;;15.27;2.60;;;;;;;;;;5075607;28;20074;-72
2022/11/05 09:05:27;;;;;;;12.07;4.03;;;;;;;;;;5075985;28;20388;-71
2022/11/05 09:07:53;;;;;;;10.55;2.70;;;;;;;;;;5075393;28;20047;-73
2022/11/05 09:10:19;;;;;;;9.98;2.53;;;;;;;;;;5075366;28;20037;-72
2022/11/05 09:12:45;;;;;;;20.17;5.32;;;;;;;;;;5075744;28;20036;-73
2022/11/05 09:15:11;;;;;;;14.35;3.30;;;;;;;;;;5076111;28;20326;-73
2022/11/05 09:17:37;;;;;;;9.82;2.60;;;;;;;;;;5076056;28;20043;-73
2022/11/05 09:20:04;;;;;;;10.80;2.30;;;;;;;;;;5080588;28;20020;-74
2022/11/05 09:22:30;;;;;;;15.23;2.92;;;;;;;;;;5082113;28;20034;-72
2022/11/05 09:24:56;;;;;;;11.68;3.45;;;;;;;;;;5081157;28;20032;-73
2022/11/05 09:27:22;;;;;;;12.75;3.20;;;;;;;;;;5077354;28;20096;-73
2022/11/05 09:29:48;;;;;;;12.07;2.63;;;;;;;;;;5080929;28;20084;-74
2022/11/05 09:32:17;;;;;;;9.23;2.35;;;;;;;;;;5090860;28;20040;-71
2022/11/05 09:34:44;;;;;;;8.73;2.50;;;;;;;;;;5086413;28;20017;-72
2022/11/05 09:37:10;;;;;;;9.07;2.35;;;;;;;;;;5084083;28;20032;-72
2022/11/05 09:39:36;;;;;;;9.70;2.65;;;;;;;;;;5088972;28;20032;-72
2022/11/05 09:42:06;;;;;;;6.72;2.20;;;;;;;;;;5089816;28;20027;-73
2022/11/05 09:44:43;;;;;;;7.82;2.38;;;;;;;;;;5087445;28;20027;-73
2022/11/05 09:47:14;;;;;;;14.20;2.00;;;;;;;;;;5083080;28;20036;-75
2022/11/05 09:49:49;;;;;;;13.25;2.38;;;;;;;;;;5085449;28;20084;-73
2022/11/05 09:52:19;;;;;;;13.40;2.60;;;;;;;;;;5083832;28;20016;-71
2022/11/05 09:54:46;;;;;;;9.80;2.00;;;;;;;;;;5086281;28;20025;-73
2022/11/05 09:57:15;;;;;;;10.07;2.50;;;;;;;;;;5087480;28;20013;-71
2022/11/05 09:59:50;;;;;;;13.65;2.22;;;;;;;;;;5088273;28;20032;-71
2022/11/05 10:02:21;;;;;;;9.30;2.42;;;;;;;;;;5088124;28;20071;-72
2022/11/05 10:04:49;;;;;;;13.05;3.35;;;;;;;;;;5086328;28;20115;-74
2022/11/05 10:07:17;;;;;;;9.75;2.53;;;;;;;;;;5090360;28;20028;-73
2022/11/05 10:09:46;;;;;;;10.93;2.83;;;;;;;;;;5089223;28;20020;-74
2022/11/05 10:12:45;;;;;;;19.45;3.00;;;;;;;;;;5089095;28;20066;-74
2022/11/05 10:15:16;;;;;;;17.30;3.28;;;;;;;;;;5058741;28;20029;-73
2022/11/05 10:17:45;;;;;;;13.60;2.97;;;;;;;;;;5075141;28;20365;-71
2022/11/05 10:20:22;;;;;;;17.13;3.45;;;;;;;;;;5073915;28;20089;-71
2022/11/05 10:22:48;;;;;;;11.63;2.03;;;;;;;;;;5074824;28;20067;-72
2022/11/05 10:25:18;;;;;;;13.32;2.72;;;;;;;;;;5074394;28;20037;-73
2022/11/05 10:27:51;;;;;;;12.05;2.88;;;;;;;;;;5074897;28;20020;-73
2022/11/05 10:30:17;;;;;;;12.32;2.63;;;;;;;;;;5076252;28;20024;-74
2022/11/05 10:32:43;;;;;;;9.88;2.28;;;;;;;;;;5075949;28;20052;-73
2022/11/05 10:35:17;;;;;;;11.73;2.35;;;;;;;;;;5086248;28;20024;-71
2022/11/05 10:37:43;;;;;;;10.77;2.03;;;;;;;;;;5092859;28;20046;-72
2022/11/05 10:40:38;;;;;;;12.10;2.88;;;;;;;;;;5079461;28;20036;-72
2022/11/05 10:43:16;;;;;;;17.73;2.92;;;;;;;;;;5064661;28;20393;-72
2022/11/05 10:45:42;;;;;;;15.00;5.97;;;;;;;;;;5074864;28;20064;-72
2022/11/05 10:48:20;;;;;;;11.35;2.80;;;;;;;;;;5076667;28;20047;-71
2022/11/05 10:50:47;;;;;;;10.38;2.08;;;;;;;;;;5075727;28;20028;-72
2022/11/05 10:53:19;;;;;;;8.88;2.55;;;;;;;;;;5076035;28;20024;-71
2022/11/05 10:55:46;;;;;;;9.65;1.90;;;;;;;;;;5075733;28;20017;-74
2022/11/05 10:58:12;;;;;;;9.90;2.00;;;;;;;;;;5079608;28;20078;-73
2022/11/05 11:00:39;;;;;;;10.73;2.42;;;;;;;;;;5080708;28;20021;-73
2022/11/05 11:03:06;;;;;;;10.75;2.08;;;;;;;;;;5080139;28;20469;-72
2022/11/05 11:05:34;;;;;;;8.73;2.97;;;;;;;;;;5080992;28;20037;-72
2022/11/05 11:08:01;;;;;;;10.50;2.00;;;;;;;;;;5076606;28;20021;-72
2022/11/05 11:10:29;;;;;;;9.55;1.80;;;;;;;;;;5074062;28;20028;-74
2022/11/05 11:12:55;;;;;;;6.68;1.92;;;;;;;;;;5074538;28;20378;-73
2022/11/05 11:15:31;;;;;;;9.13;2.13;;;;;;;;;;5076096;28;20016;-74
2022/11/05 11:17:57;;;;;;;8.48;1.65;;;;;;;;;;5077588;28;20080;-73
2022/11/05 11:20:25;;;;;;;9.30;1.92;;;;;;;;;;5074750;28;20025;-72
2022/11/05 11:22:57;;;;;;;5.82;1.70;;;;;;;;;;5073265;28;20033;-74
2022/11/05 11:25:24;;;;;;;12.00;2.35;;;;;;;;;;5078500;28;20040;-73
2022/11/05 11:27:50;;;;;;;7.35;1.73;;;;;;;;;;5078195;28;20040;-72
2022/11/05 11:30:17;;;;;;;9.93;2.00;;;;;;;;;;5073054;28;20032;-72
2022/11/05 11:32:43;;;;;;;9.73;2.17;;;;;;;;;;5075796;28;20028;-72
2022/11/05 11:35:19;;;;;;;8.85;2.25;;;;;;;;;;5074011;28;20038;-71
2022/11/05 11:37:45;;;;;;;10.68;1.95;;;;;;;;;;5073155;28;20024;-73
2022/11/05 11:40:16;;;;;;;7.20;1.63;;;;;;;;;;5073719;28;20056;-73
2022/11/05 11:42:45;;;;;;;8.52;1.70;;;;;;;;;;5074072;28;20025;-74
2022/11/05 11:45:16;;;;;;;10.40;1.58;;;;;;;;;;5073527;28;20456;-74
2022/11/05 11:47:43;;;;;;;7.28;1.75;;;;;;;;;;5072440;28;20367;-72
2022/11/05 11:50:29;;;;;;;5.68;1.63;;;;;;;;;;5072603;28;20139;-73
2022/11/05 11:52:55;;;;;;;9.68;2.17;;;;;;;;;;5072971;28;20021;-72
2022/11/05 11:55:21;;;;;;;8.23;1.73;;;;;;;;;;5077924;28;20023;-73
2022/11/05 11:57:52;;;;;;;7.25;1.73;;;;;;;;;;5077627;28;20080;-72
2022/11/05 12:00:19;;;;;;;8.57;1.80;;;;;;;;;;5077641;28;20541;-74
2022/11/05 12:03:03;;;;;;;6.40;1.98;;;;;;;;;;5077222;28;20074;-73
2022/11/05 12:05:29;;;;;;;;;;;;;;;;;;5078024;28;20035;-71
2022/11/05 12:08:31;;;;;;;10.43;2.55;;;;;;;;;;5076916;28;19904;-72
2022/11/05 12:11:01;;;;;;;5.80;2.15;;;;;;;;;;5034691;28;20033;-73
2022/11/05 12:13:30;;;;;;;8.70;2.17;;;;;;;;;;5069900;28;20485;-73
2022/11/05 12:15:56;;;;;;;10.10;2.40;;;;;;;;;;5076955;28;20028;-71
2022/11/05 12:18:40;;;;;;;10.80;2.20;;;;;;;;;;5077235;28;20031;-72
2022/11/05 12:21:13;;;;;;;10.73;2.47;;;;;;;;;;5078173;28;20024;-73
2022/11/05 12:23:39;;;;;;;6.38;2.00;;;;;;;;;;5077112;28;20060;-72
2022/11/05 12:26:05;;;;;;;8.88;2.50;;;;;;;;;;5076375;28;20031;-73
2022/11/05 12:28:31;;;;;;;11.75;3.10;;;;;;;;;;5077697;28;20032;-72
2022/11/05 12:31:05;;;;;;;17.17;2.78;;;;;;;;;;5077886;28;20038;-72
2022/11/05 12:33:40;;;;;;;11.57;2.40;;;;;;;;;;5077386;28;20020;-73
2022/11/05 12:36:11;;;;;;;8.52;2.47;;;;;;;;;;5076767;28;20029;-72
2022/11/05 12:38:46;;;;;;;8.38;2.10;;;;;;;;;;5077431;28;20056;-73
2022/11/05 12:41:15;;;;;;;7.32;2.10;;;;;;;;;;5075791;28;20032;-72
2022/11/05 12:43:47;;;;;;;9.35;2.13;;;;;;;;;;5075727;28;20066;-74
2022/11/05 12:46:25;;;;;;;8.48;2.15;;;;;;;;;;5075694;28;20025;-74
2022/11/05 12:49:03;;;;;;;10.48;2.30;;;;;;;;;;5076536;28;20392;-74
2022/11/05 12:51:46;;;;;;;7.47;2.80;;;;;;;;;;5076217;28;20032;-73
2022/11/05 12:54:33;;;;;;;9.98;2.50;;;;;;;;;;5074507;28;20032;-72
2022/11/05 12:57:02;;;;;;;14.05;2.50;;;;;;;;;;5074495;28;20086;-73
2022/11/05 12:59:34;;;;;;;8.85;2.45;;;;;;;;;;5076217;28;20020;-72
2022/11/05 13:02:02;;;;;;;10.48;3.05;;;;;;;;;;5078546;28;20485;-73
2022/11/05 13:04:37;;;;;;;8.77;2.13;;;;;;;;;;5079085;28;20107;-73
2022/11/05 13:07:06;;;;;;;10.70;2.10;;;;;;;;;;5079991;28;20024;-74
2022/11/05 13:09:35;;;;;;;9.32;2.55;;;;;;;;;;5076234;28;20035;-73
2022/11/05 13:12:07;;;;;;;11.45;2.20;;;;;;;;;;5075608;28;20017;-73
2022/11/05 13:14:41;;;;;;;7.95;2.45;;;;;;;;;;5076563;28;20055;-72
2022/11/05 13:17:10;;;;;;;10.15;2.28;;;;;;;;;;5084095;28;20024;-73
2022/11/05 13:19:39;;;;;;;11.57;3.03;;;;;;;;;;5091894;28;20025;-73
2022/11/05 13:22:08;;;;;;;8.13;2.28;;;;;;;;;;5095311;28;20021;-73
2022/11/05 13:24:37;;;;;;;8.18;2.20;;;;;;;;;;5095122;28;20061;-73
2022/11/05 13:27:30;;;;;;;6.65;2.10;;;;;;;;;;5095783;28;20031;-73
2022/11/05 13:29:59;;;;;;;8.25;2.20;;;;;;;;;;5083447;28;20029;-74
2022/11/05 13:32:30;;;;;;;14.48;3.50;;;;;;;;;;5074952;28;20389;-74
2022/11/05 13:34:57;;;;;;;17.02;4.53;;;;;;;;;;5075664;28;20497;-75
2022/11/05 13:40:29;;;;;;;;;;;;;;;;;;5077053;28;20035;-74
2022/11/05 13:43:01;;;;;;;13.15;4.47;;;;;;;;;;5076274;28;19984;-73
2022/11/05 13:45:27;;;;;;;15.23;5.30;;;;;;;;;;5082630;28;20028;-74
2022/11/05 13:47:59;;;;;;;9.38;3.30;;;;;;;;;;5075732;28;20071;-73
2022/11/05 13:50:44;;;;;;;7.22;2.70;;;;;;;;;;5074872;28;20056;-76
2022/11/05 13:53:10;;;;;;;12.23;2.70;;;;;;;;;;5076162;28;20415;-74
2022/11/05 13:55:36;;;;;;;8.50;2.70;;;;;;;;;;5075173;28;20091;-74
2022/11/05 13:58:02;;;;;;;10.00;2.63;;;;;;;;;;5075812;28;20020;-73
2022/11/05 14:00:30;;;;;;;7.03;2.60;;;;;;;;;;5077867;28;20032;-74
2022/11/05 14:02:57;;;;;;;10.70;3.05;;;;;;;;;;5077408;28;20469;-73
2022/11/05 14:05:26;;;;;;;11.07;3.00;;;;;;;;;;5075107;28;20030;-76
2022/11/05 14:07:53;;;;;;;8.68;2.97;;;;;;;;;;5075927;28;20436;-75
2022/11/05 14:10:39;;;;;;;12.40;2.88;;;;;;;;;;5078102;28;20036;-74
2022/11/05 14:13:17;;;;;;;11.15;3.45;;;;;;;;;;5078124;28;20389;-75
2022/11/05 14:15:55;;;;;;;12.48;3.25;;;;;;;;;;5075932;28;20520;-75
2022/11/05 14:18:23;;;;;;;10.63;3.15;;;;;;;;;;5076274;28;20019;-73
2022/11/05 14:20:57;;;;;;;11.18;3.53;;;;;;;;;;5077234;28;20060;-74
2022/11/05 14:23:23;;;;;;;9.10;3.05;;;;;;;;;;5089742;28;20032;-74
2022/11/05 14:25:52;;;;;;;9.40;3.55;;;;;;;;;;5086077;28;20028;-75
2022/11/05 14:28:28;;;;;;;13.30;3.70;;;;;;;;;;5074770;28;20021;-74
2022/11/05 14:30:54;;;;;;;18.38;3.95;;;;;;;;;;5074527;28;20035;-74
2022/11/05 14:33:26;;;;;;;11.93;3.60;;;;;;;;;;5076833;28;20066;-76
2022/11/05 14:35:52;;;;;;;14.43;3.60;;;;;;;;;;5074652;28;20031;-75
2022/11/05 14:38:20;;;;;;;15.40;4.95;;;;;;;;;;5074570;28;20341;-76
2022/11/05 14:40:46;;;;;;;11.40;3.80;;;;;;;;;;5074011;28;20413;-75
2022/11/05 14:43:21;;;;;;;20.77;4.35;;;;;;;;;;5073779;28;20027;-72
2022/11/05 14:45:59;;;;;;;17.80;5.15;;;;;;;;;;5073409;28;20027;-74
2022/11/05 14:48:39;;;;;;;19.67;6.32;;;;;;;;;;5073962;28;20052;-73
2022/11/05 14:51:24;;;;;;;22.67;5.82;;;;;;;;;;5073603;28;20021;-75
2022/11/05 14:53:51;;;;;;;16.15;4.50;;;;;;;;;;5072075;28;20025;-75
2022/11/05 14:56:18;;;;;;;11.35;4.47;;;;;;;;;;5087503;28;20028;-73
2022/11/05 14:58:45;;;;;;;17.60;4.50;;;;;;;;;;5093840;28;20040;-75
2022/11/05 15:01:14;;;;;;;19.33;4.57;;;;;;;;;;5079100;28;20071;-73
2022/11/05 15:03:40;;;;;;;11.07;3.65;;;;;;;;;;5073767;28;20033;-75
2022/11/05 15:06:38;;;;;;;18.10;3.65;;;;;;;;;;5074142;28;20100;-75
2022/11/05 15:09:20;;;;;;;16.50;3.55;;;;;;;;;;5050698;28;20037;-73
2022/11/05 15:11:55;;;;;;;14.00;4.47;;;;;;;;;;5074307;28;20070;-75
2022/11/05 15:14:41;;;;;;;19.25;5.07;;;;;;;;;;5074488;28;20021;-76
2022/11/05 15:17:14;;;;;;;11.55;3.75;;;;;;;;;;5074223;28;20020;-75
2022/11/05 15:19:41;;;;;;;19.85;4.30;;;;;;;;;;5073628;28;20396;-75
2022/11/05 15:22:12;;;;;;;15.00;4.07;;;;;;;;;;5072773;28;20469;-75
2022/11/05 15:24:38;;;;;;;12.25;3.78;;;;;;;;;;5072731;28;20081;-75
2022/11/05 15:27:07;;;;;;;11.93;3.92;;;;;;;;;;5071996;28;20028;-72